createdAt,value
2019-04-25T00:00:51.325Z,8.87
2019-04-25T00:01:49.551Z,8.90
2019-04-25T00:02:50.945Z,8.83
2019-04-25T00:03:49.503Z,8.99
2019-04-25T00:04:49.479Z,8.87
2019-04-25T00:05:49.455Z,8.81
2019-04-25T00:06:49.430Z,8.84
2019-04-25T00:07:49.405Z,8.86
2019-04-25T00:08:49.381Z,8.86
2019-04-25T00:09:49.356Z,8.84
2019-04-25T00:10:49.336Z,8.79
2019-04-25T00:11:49.307Z,8.79
2019-04-25T00:12:49.293Z,8.76
2019-04-25T00:13:49.260Z,8.83
2019-04-25T00:14:49.233Z,8.78
2019-04-25T00:15:49.211Z,8.75
2019-04-25T00:16:49.294Z,8.78
2019-04-25T00:17:49.159Z,8.73
2019-04-25T00:18:49.335Z,8.79
2019-04-25T00:19:49.110Z,8.76
2019-04-25T00:20:49.086Z,8.75
2019-04-25T00:21:49.061Z,8.78
2019-04-25T00:22:49.269Z,8.76
2019-04-25T00:23:49.308Z,8.71
2019-04-25T00:24:49.467Z,8.79
2019-04-25T00:25:49.240Z,8.73
2019-04-25T00:26:48.938Z,8.81
2019-04-25T00:27:48.913Z,8.78
2019-04-25T00:28:48.892Z,8.81
2019-04-25T00:29:48.864Z,8.79
2019-04-25T00:30:48.840Z,8.75
2019-04-25T00:31:49.290Z,8.76
2019-04-25T00:32:49.301Z,8.72
2019-04-25T00:33:49.578Z,8.73
2019-04-25T00:34:48.740Z,8.71
2019-04-25T00:35:49.557Z,8.73
2019-04-25T00:36:48.732Z,8.66
2019-04-25T00:37:48.677Z,8.65
2019-04-25T00:38:49.260Z,8.65
2019-04-25T00:39:49.091Z,8.62
2019-04-25T00:40:48.594Z,8.63
2019-04-25T00:41:49.351Z,8.63
2019-04-25T00:42:48.543Z,8.65
2019-04-25T00:43:48.519Z,8.66
2019-04-25T00:44:48.495Z,8.62
2019-04-25T00:45:48.470Z,8.79
2019-04-25T00:46:50.039Z,8.71
2019-04-25T00:47:48.420Z,8.75
2019-04-25T00:48:48.395Z,8.72
2019-04-25T00:49:48.369Z,8.65
2019-04-25T00:50:48.345Z,8.65
2019-04-25T00:51:48.362Z,8.68
2019-04-25T00:52:48.356Z,8.57
2019-04-25T00:53:48.271Z,8.60
2019-04-25T00:54:48.364Z,8.58
2019-04-25T00:55:48.644Z,8.60
2019-04-25T00:56:49.339Z,8.55
2019-04-25T00:57:48.778Z,8.51
2019-04-25T00:58:48.892Z,8.47
2019-04-25T00:59:48.886Z,8.50
2019-04-25T01:00:49.005Z,8.44
2019-04-25T01:01:48.095Z,8.48
2019-04-25T01:02:48.048Z,8.54
2019-04-25T01:03:48.022Z,8.48
2019-04-25T01:04:47.998Z,8.51
2019-04-25T01:05:47.973Z,8.51
2019-04-25T01:06:47.948Z,8.45
2019-04-25T01:07:47.923Z,8.45
2019-04-25T01:08:47.901Z,8.51
2019-04-25T01:09:47.906Z,8.53
2019-04-25T01:10:47.997Z,8.55
2019-04-25T01:11:47.975Z,8.48
2019-04-25T01:12:48.202Z,8.54
2019-04-25T01:13:48.250Z,8.48
2019-04-25T01:14:48.403Z,8.48
2019-04-25T01:15:48.490Z,8.50
2019-04-25T01:16:48.581Z,8.42
2019-04-25T01:17:47.675Z,8.42
2019-04-25T01:18:47.652Z,8.42
2019-04-25T01:19:47.624Z,8.32
2019-04-25T01:20:47.600Z,8.29
2019-04-25T01:21:47.574Z,8.36
2019-04-25T01:22:47.549Z,8.37
2019-04-25T01:23:47.525Z,8.36
2019-04-25T01:24:47.500Z,8.42
2019-04-25T01:25:47.863Z,8.39
2019-04-25T01:26:47.553Z,8.37
2019-04-25T01:27:47.693Z,8.33
2019-04-25T01:28:47.669Z,8.35
2019-04-25T01:29:47.833Z,8.33
2019-04-25T01:30:47.891Z,8.32
2019-04-25T01:31:47.995Z,8.26
2019-04-25T01:32:48.141Z,8.28
2019-04-25T01:33:48.254Z,8.36
2019-04-25T01:34:47.251Z,8.28
2019-04-25T01:35:47.344Z,8.28
2019-04-25T01:36:47.267Z,8.22
2019-04-25T01:37:47.474Z,8.26
2019-04-25T01:38:47.417Z,8.21
2019-04-25T01:39:47.518Z,8.22
2019-04-25T01:40:48.282Z,8.25
2019-04-25T01:41:47.667Z,8.25
2019-04-25T01:42:47.901Z,8.30
2019-04-25T01:43:48.355Z,8.30
2019-04-25T01:44:47.963Z,8.35
2019-04-25T01:45:48.059Z,8.33
2019-04-25T01:46:48.159Z,8.30
2019-04-25T01:47:48.868Z,8.35
2019-04-25T01:48:46.907Z,8.35
2019-04-25T01:49:49.142Z,8.30
2019-04-25T01:50:46.852Z,8.29
2019-04-25T01:51:46.827Z,8.30
2019-04-25T01:52:46.803Z,8.30
2019-04-25T01:53:46.777Z,8.33
2019-04-25T01:54:46.753Z,8.32
2019-04-25T01:55:56.149Z,8.33
2019-04-25T01:56:46.703Z,8.26
2019-04-25T01:57:46.678Z,8.21
2019-04-25T01:58:46.653Z,8.25
2019-04-25T01:59:46.627Z,8.25
2019-04-25T02:00:46.603Z,8.21
2019-04-25T02:01:46.587Z,8.17
2019-04-25T02:02:46.553Z,8.25
2019-04-25T02:03:46.528Z,8.25
2019-04-25T02:04:46.504Z,8.22
2019-04-25T02:05:46.480Z,8.36
2019-04-25T02:06:46.453Z,8.35
2019-04-25T02:07:46.431Z,8.30
2019-04-25T02:08:46.404Z,8.28
2019-04-25T02:09:46.378Z,8.26
2019-04-25T02:10:46.354Z,8.26
2019-04-25T02:11:46.329Z,8.18
2019-04-25T02:12:46.304Z,8.18
2019-04-25T02:13:46.278Z,8.17
2019-04-25T02:14:46.253Z,8.15
2019-04-25T02:15:46.229Z,8.10
2019-04-25T02:16:46.955Z,8.15
2019-04-25T02:17:46.179Z,8.10
2019-04-25T02:18:46.154Z,8.17
2019-04-25T02:19:46.129Z,8.20
2019-04-25T02:20:46.104Z,8.12
2019-04-25T02:21:46.079Z,8.14
2019-04-25T02:22:46.054Z,8.14
2019-04-25T02:23:46.029Z,8.14
2019-04-25T02:24:46.004Z,8.11
2019-04-25T02:25:45.980Z,7.96
2019-04-25T02:26:45.953Z,7.97
2019-04-25T02:27:45.929Z,7.93
2019-04-25T02:28:45.904Z,7.93
2019-04-25T02:29:45.880Z,7.94
2019-04-25T02:30:45.855Z,7.87
2019-04-25T02:31:45.828Z,7.89
2019-04-25T02:32:45.805Z,7.90
2019-04-25T02:33:45.801Z,7.96
2019-04-25T02:34:45.826Z,7.97
2019-04-25T02:35:46.801Z,7.94
2019-04-25T02:36:47.057Z,7.94
2019-04-25T02:37:45.679Z,7.94
2019-04-25T02:38:45.654Z,7.93
2019-04-25T02:39:45.630Z,7.90
2019-04-25T02:40:45.760Z,7.78
2019-04-25T02:41:45.579Z,7.79
2019-04-25T02:42:45.553Z,7.81
2019-04-25T02:43:45.530Z,7.77
2019-04-25T02:44:45.504Z,7.82
2019-04-25T02:45:45.480Z,7.79
2019-04-25T02:46:45.456Z,7.77
2019-04-25T02:47:46.236Z,7.67
2019-04-25T02:48:45.406Z,7.74
2019-04-25T02:49:45.382Z,7.81
2019-04-25T02:50:46.318Z,7.84
2019-04-25T02:51:45.329Z,7.71
2019-04-25T02:52:45.305Z,7.77
2019-04-25T02:53:45.278Z,7.69
2019-04-25T02:54:45.255Z,7.72
2019-04-25T02:55:45.229Z,7.60
2019-04-25T02:56:46.686Z,7.81
2019-04-25T02:57:45.178Z,7.66
2019-04-25T02:58:45.157Z,7.78
2019-04-25T02:59:45.302Z,7.78
2019-04-25T03:00:54.887Z,7.71
2019-04-25T03:01:45.084Z,7.71
2019-04-25T03:02:45.053Z,7.59
2019-04-25T03:03:45.124Z,7.56
2019-04-25T03:04:45.010Z,7.74
2019-04-25T03:05:47.640Z,7.77
2019-04-25T03:06:45.539Z,7.85
2019-04-25T03:07:44.947Z,7.75
2019-04-25T03:08:45.191Z,7.72
2019-04-25T03:09:45.249Z,7.69
2019-04-25T03:10:44.860Z,7.85
2019-04-25T03:11:47.340Z,7.78
2019-04-25T03:12:44.877Z,7.77
2019-04-25T03:13:44.780Z,7.72
2019-04-25T03:14:44.899Z,7.72
2019-04-25T03:15:44.727Z,7.66
2019-04-25T03:16:45.024Z,7.66
2019-04-25T03:17:44.678Z,7.63
2019-04-25T03:18:44.657Z,7.59
2019-04-25T03:19:44.638Z,7.59
2019-04-25T03:20:45.137Z,7.62
2019-04-25T03:21:45.299Z,7.59
2019-04-25T03:22:44.649Z,7.63
2019-04-25T03:23:46.185Z,7.58
2019-04-25T03:24:45.912Z,7.53
2019-04-25T03:25:44.474Z,7.47
2019-04-25T03:26:44.448Z,7.47
2019-04-25T03:27:44.424Z,7.53
2019-04-25T03:28:44.406Z,7.49
2019-04-25T03:29:45.713Z,7.53
2019-04-25T03:30:45.047Z,7.52
2019-04-25T03:31:45.105Z,7.50
2019-04-25T03:32:45.080Z,7.49
2019-04-25T03:33:45.764Z,7.52
2019-04-25T03:34:44.248Z,7.52
2019-04-25T03:35:44.223Z,7.60
2019-04-25T03:36:44.197Z,7.55
2019-04-25T03:37:44.172Z,7.72
2019-04-25T03:38:44.245Z,7.75
2019-04-25T03:39:44.122Z,7.84
2019-04-25T03:40:44.098Z,7.89
2019-04-25T03:41:45.447Z,7.84
2019-04-25T03:42:44.045Z,7.85
2019-04-25T03:43:44.261Z,7.96
2019-04-25T03:44:43.996Z,7.82
2019-04-25T03:45:45.327Z,7.92
2019-04-25T03:46:43.946Z,7.87
2019-04-25T03:47:43.920Z,7.82
2019-04-25T03:48:44.157Z,7.90
2019-04-25T03:49:43.869Z,7.93
2019-04-25T03:50:44.200Z,7.93
2019-04-25T03:51:43.965Z,7.96
2019-04-25T03:52:43.794Z,7.96
2019-04-25T03:53:43.849Z,7.93
2019-04-25T03:54:43.744Z,7.93
2019-04-25T03:55:44.382Z,7.96
2019-04-25T03:56:53.307Z,7.96
2019-04-25T03:57:44.318Z,7.93
2019-04-25T03:58:44.016Z,7.90
2019-04-25T03:59:43.812Z,7.97
2019-04-25T04:00:44.670Z,8.03
2019-04-25T04:01:43.957Z,8.10
2019-04-25T04:02:44.263Z,8.08
2019-04-25T04:03:44.070Z,8.14
2019-04-25T04:04:43.608Z,8.12
2019-04-25T04:05:44.188Z,8.14
2019-04-25T04:06:44.069Z,8.07
2019-04-25T04:07:43.595Z,8.10
2019-04-25T04:08:44.285Z,8.12
2019-04-25T04:09:43.595Z,8.20
2019-04-25T04:10:43.340Z,8.14
2019-04-25T04:11:43.574Z,8.15
2019-04-25T04:12:44.355Z,8.18
2019-04-25T04:13:44.032Z,8.15
2019-04-25T04:14:43.752Z,8.22
2019-04-25T04:15:43.447Z,8.17
2019-04-25T04:16:44.311Z,8.18
2019-04-25T04:17:43.829Z,8.29
2019-04-25T04:18:44.159Z,8.20
2019-04-25T04:19:43.579Z,8.22
2019-04-25T04:20:43.578Z,8.20
2019-04-25T04:21:43.269Z,8.22
2019-04-25T04:22:43.845Z,8.20
2019-04-25T04:23:43.119Z,8.14
2019-04-25T04:24:44.015Z,8.18
2019-04-25T04:25:43.369Z,8.10
2019-04-25T04:26:43.143Z,8.02
2019-04-25T04:27:43.801Z,8.08
2019-04-25T04:28:43.559Z,8.07
2019-04-25T04:29:43.260Z,8.11
2019-04-25T04:30:43.599Z,8.10
2019-04-25T04:31:43.170Z,8.08
2019-04-25T04:32:44.158Z,8.12
2019-04-25T04:33:43.151Z,8.14
2019-04-25T04:34:43.547Z,8.14
2019-04-25T04:35:44.129Z,8.14
2019-04-25T04:36:43.720Z,8.17
2019-04-25T04:37:43.164Z,8.10
2019-04-25T04:38:44.075Z,8.08
2019-04-25T04:39:43.697Z,8.00
2019-04-25T04:40:44.188Z,8.07
2019-04-25T04:41:43.636Z,7.96
2019-04-25T04:42:43.516Z,8.00
2019-04-25T04:43:44.028Z,7.92
2019-04-25T04:44:43.741Z,8.02
2019-04-25T04:45:44.991Z,7.94
2019-04-25T04:46:43.904Z,7.94
2019-04-25T04:47:43.315Z,7.92
2019-04-25T04:48:43.806Z,7.97
2019-04-25T04:49:43.820Z,8.00
2019-04-25T04:50:43.450Z,8.04
2019-04-25T04:51:42.307Z,7.99
2019-04-25T04:52:43.909Z,8.07
2019-04-25T04:53:43.787Z,8.08
2019-04-25T04:54:43.876Z,8.08
2019-04-25T04:55:43.245Z,8.04
2019-04-25T04:56:43.691Z,8.02
2019-04-25T04:57:43.427Z,8.07
2019-04-25T04:58:43.222Z,8.00
2019-04-25T04:59:43.739Z,8.03
2019-04-25T05:00:43.691Z,8.03
2019-04-25T05:01:43.004Z,8.03
2019-04-25T05:02:43.353Z,8.12
2019-04-25T05:03:42.004Z,8.15
2019-04-25T05:04:43.487Z,8.08
2019-04-25T05:05:41.964Z,8.15
2019-04-25T05:06:43.550Z,8.12
2019-04-25T05:07:41.911Z,8.18
2019-04-25T05:08:43.464Z,8.25
2019-04-25T05:09:43.482Z,8.28
2019-04-25T05:10:43.232Z,8.25
2019-04-25T05:11:41.801Z,8.26
2019-04-25T05:12:41.776Z,8.35
2019-04-25T05:13:41.752Z,8.30
2019-04-25T05:14:41.726Z,8.35
2019-04-25T05:15:43.009Z,8.33
2019-04-25T05:16:43.171Z,8.35
2019-04-25T05:17:46.903Z,8.29
2019-04-25T05:18:41.625Z,8.37
2019-04-25T05:19:41.600Z,8.42
2019-04-25T05:20:41.575Z,8.51
2019-04-25T05:21:41.549Z,8.45
2019-04-25T05:22:41.524Z,8.55
2019-04-25T05:23:41.499Z,8.65
2019-04-25T05:24:41.474Z,8.69
2019-04-25T05:25:41.448Z,8.69
2019-04-25T05:26:41.423Z,8.69
2019-04-25T05:27:57.618Z,8.69
2019-04-25T05:28:41.373Z,8.69
2019-04-25T05:29:41.347Z,8.63
2019-04-25T05:30:41.324Z,8.72
2019-04-25T05:31:41.297Z,8.83
2019-04-25T05:32:41.336Z,8.78
2019-04-25T05:33:41.253Z,8.75
2019-04-25T05:34:41.222Z,8.86
2019-04-25T05:35:41.197Z,8.84
2019-04-25T05:36:41.171Z,8.84
2019-04-25T05:37:41.158Z,8.91
2019-04-25T05:38:41.121Z,8.87
2019-04-25T05:39:41.096Z,8.91
2019-04-25T05:40:41.074Z,9.06
2019-04-25T05:41:41.046Z,9.02
2019-04-25T05:42:41.021Z,9.15
2019-04-25T05:43:40.996Z,9.21
2019-04-25T05:44:41.720Z,9.21
2019-04-25T05:45:40.945Z,9.21
2019-04-25T05:46:40.920Z,9.30
2019-04-25T05:47:40.896Z,9.35
2019-04-25T05:48:40.871Z,9.39
2019-04-25T05:49:40.845Z,9.38
2019-04-25T05:50:40.821Z,9.52
2019-04-25T05:51:40.796Z,9.43
2019-04-25T05:52:40.769Z,9.42
2019-04-25T05:53:40.745Z,9.45
2019-04-25T05:54:40.720Z,9.48
2019-04-25T05:55:44.038Z,9.56
2019-04-25T05:56:40.672Z,9.57
2019-04-25T05:57:47.405Z,9.67
2019-04-25T05:58:40.621Z,9.52
2019-04-25T05:59:40.595Z,9.71
2019-04-25T06:00:40.572Z,9.73
2019-04-25T06:01:43.553Z,9.85
2019-04-25T06:02:40.521Z,9.85
2019-04-25T06:03:40.496Z,9.81
2019-04-25T06:04:40.472Z,9.88
2019-04-25T06:05:40.447Z,9.97
2019-04-25T06:06:40.422Z,9.93
2019-04-25T06:07:44.151Z,9.96
2019-04-25T06:08:40.373Z,9.99
2019-04-25T06:09:40.348Z,10.00
2019-04-25T06:10:40.324Z,10.10
2019-04-25T06:11:40.299Z,10.03
2019-04-25T06:12:40.277Z,10.09
2019-04-25T06:13:40.250Z,10.24
2019-04-25T06:14:40.225Z,10.24
2019-04-25T06:15:40.201Z,10.22
2019-04-25T06:16:40.180Z,10.21
2019-04-25T06:17:40.152Z,10.26
2019-04-25T06:18:40.128Z,10.40
2019-04-25T06:19:40.104Z,10.43
2019-04-25T06:20:40.097Z,10.37
2019-04-25T06:21:40.055Z,10.51
2019-04-25T06:22:40.030Z,10.42
2019-04-25T06:23:40.006Z,10.40
2019-04-25T06:24:39.982Z,10.34
2019-04-25T06:25:40.126Z,10.39
2019-04-25T06:26:40.142Z,10.47
2019-04-25T06:27:39.910Z,10.40
2019-04-25T06:28:49.161Z,10.53
2019-04-25T06:29:39.860Z,10.53
2019-04-25T06:30:39.836Z,10.60
2019-04-25T06:31:39.815Z,10.56
2019-04-25T06:32:39.788Z,10.65
2019-04-25T06:33:39.857Z,10.71
2019-04-25T06:34:39.739Z,10.68
2019-04-25T06:35:39.715Z,10.71
2019-04-25T06:36:39.691Z,10.71
2019-04-25T06:37:39.666Z,10.74
2019-04-25T06:38:39.642Z,10.77
2019-04-25T06:39:39.618Z,10.86
2019-04-25T06:40:39.598Z,10.94
2019-04-25T06:41:39.569Z,10.94
2019-04-25T06:42:39.550Z,11.03
2019-04-25T06:43:39.522Z,10.99
2019-04-25T06:44:39.498Z,10.94
2019-04-25T06:45:39.482Z,10.89
2019-04-25T06:46:39.449Z,11.01
2019-04-25T06:47:39.424Z,11.11
2019-04-25T06:48:39.402Z,11.11
2019-04-25T06:49:39.377Z,11.06
2019-04-25T06:50:39.353Z,11.11
2019-04-25T06:51:39.329Z,11.17
2019-04-25T06:52:39.306Z,11.16
2019-04-25T06:53:39.281Z,11.16
2019-04-25T06:54:39.257Z,11.31
2019-04-25T06:55:40.739Z,11.32
2019-04-25T06:56:39.210Z,11.29
2019-04-25T06:57:39.185Z,11.47
2019-04-25T06:58:39.180Z,11.46
2019-04-25T06:59:41.421Z,11.49
2019-04-25T07:00:42.629Z,11.41
2019-04-25T07:01:44.345Z,11.50
2019-04-25T07:02:39.065Z,11.50
2019-04-25T07:03:39.042Z,11.35
2019-04-25T07:04:39.019Z,11.46
2019-04-25T07:05:40.519Z,11.34
2019-04-25T07:06:38.970Z,11.41
2019-04-25T07:07:41.198Z,11.53
2019-04-25T07:08:38.923Z,11.52
2019-04-25T07:09:38.907Z,11.59
2019-04-25T07:10:38.875Z,11.64
2019-04-25T07:11:38.855Z,11.70
2019-04-25T07:12:38.828Z,11.71
2019-04-25T07:13:39.554Z,11.82
2019-04-25T07:14:38.780Z,11.86
2019-04-25T07:15:38.757Z,12.01
2019-04-25T07:16:38.733Z,11.87
2019-04-25T07:17:38.709Z,11.93
2019-04-25T07:18:38.685Z,12.04
2019-04-25T07:19:38.661Z,12.04
2019-04-25T07:20:38.639Z,12.08
2019-04-25T07:21:38.614Z,12.05
2019-04-25T07:22:38.590Z,12.15
2019-04-25T07:23:38.567Z,12.29
2019-04-25T07:24:40.796Z,12.37
2019-04-25T07:25:38.519Z,12.44
2019-04-25T07:26:39.747Z,12.52
2019-04-25T07:27:38.474Z,12.49
2019-04-25T07:28:38.450Z,12.62
2019-04-25T07:29:38.426Z,12.63
2019-04-25T07:30:50.225Z,12.67
2019-04-25T07:31:38.379Z,12.46
2019-04-25T07:32:38.881Z,12.46
2019-04-25T07:33:38.332Z,12.49
2019-04-25T07:34:38.309Z,12.49
2019-04-25T07:35:38.286Z,12.59
2019-04-25T07:36:38.263Z,12.70
2019-04-25T07:37:41.557Z,12.66
2019-04-25T07:38:38.215Z,12.71
2019-04-25T07:39:38.192Z,12.78
2019-04-25T07:40:38.169Z,12.81
2019-04-25T07:41:38.529Z,12.84
2019-04-25T07:42:38.124Z,12.92
2019-04-25T07:43:38.099Z,12.97
2019-04-25T07:44:49.738Z,13.02
2019-04-25T07:45:38.334Z,12.97
2019-04-25T07:46:40.009Z,13.17
2019-04-25T07:47:38.023Z,13.17
2019-04-25T07:48:38.218Z,13.24
2019-04-25T07:49:38.012Z,13.22
2019-04-25T07:50:37.939Z,13.21
2019-04-25T07:51:37.914Z,13.36
2019-04-25T07:52:37.891Z,13.54
2019-04-25T07:53:37.868Z,13.36
2019-04-25T07:54:38.488Z,13.32
2019-04-25T07:55:38.768Z,13.49
2019-04-25T07:56:37.937Z,13.58
2019-04-25T07:57:38.628Z,13.59
2019-04-25T07:58:48.807Z,13.58
2019-04-25T07:59:37.731Z,13.56
2019-04-25T08:00:37.707Z,13.65
2019-04-25T08:01:39.042Z,13.87
2019-04-25T08:02:37.662Z,13.94
2019-04-25T08:03:37.636Z,14.06
2019-04-25T08:04:38.392Z,14.12
2019-04-25T08:05:37.916Z,14.13
2019-04-25T08:06:37.723Z,14.14
2019-04-25T08:07:37.849Z,14.27
2019-04-25T08:08:38.142Z,14.37
2019-04-25T08:09:38.000Z,14.43
2019-04-25T08:10:38.130Z,14.44
2019-04-25T08:11:38.288Z,14.32
2019-04-25T08:12:37.434Z,14.43
2019-04-25T08:13:37.408Z,14.56
2019-04-25T08:14:37.401Z,14.60
2019-04-25T08:15:38.330Z,14.47
2019-04-25T08:16:37.341Z,14.52
2019-04-25T08:17:39.602Z,14.62
2019-04-25T08:18:37.295Z,14.62
2019-04-25T08:19:37.273Z,14.65
2019-04-25T08:20:37.258Z,14.72
2019-04-25T08:21:37.227Z,14.91
2019-04-25T08:22:50.125Z,14.93
2019-04-25T08:23:38.844Z,14.99
2019-04-25T08:24:37.347Z,15.01
2019-04-25T08:25:39.204Z,14.98
2019-04-25T08:26:37.591Z,15.15
2019-04-25T08:27:37.096Z,15.28
2019-04-25T08:28:49.978Z,15.33
2019-04-25T08:29:39.248Z,15.19
2019-04-25T08:30:38.072Z,15.19
2019-04-25T08:31:37.748Z,15.19
2019-04-25T08:32:37.630Z,15.15
2019-04-25T08:33:37.710Z,15.43
2019-04-25T08:34:37.289Z,15.31
2019-04-25T08:35:36.918Z,15.41
2019-04-25T08:36:38.538Z,15.46
2019-04-25T08:37:37.852Z,15.46
2019-04-25T08:38:36.849Z,15.64
2019-04-25T08:39:38.090Z,15.68
2019-04-25T08:40:37.710Z,15.82
2019-04-25T08:41:37.042Z,15.99
2019-04-25T08:42:37.909Z,15.92
2019-04-25T08:43:39.098Z,15.89
2019-04-25T08:44:36.963Z,15.88
2019-04-25T08:45:37.400Z,15.94
2019-04-25T08:46:38.082Z,16.06
2019-04-25T08:47:37.369Z,16.16
2019-04-25T08:48:37.051Z,16.25
2019-04-25T08:49:36.607Z,16.23
2019-04-25T08:50:39.472Z,16.26
2019-04-25T08:51:36.563Z,16.31
2019-04-25T08:52:36.543Z,16.60
2019-04-25T08:53:36.618Z,16.58
2019-04-25T08:54:40.821Z,16.59
2019-04-25T08:55:37.053Z,16.42
2019-04-25T08:56:36.524Z,16.44
2019-04-25T08:57:36.431Z,16.60
2019-04-25T08:58:36.572Z,16.68
2019-04-25T08:59:43.310Z,16.77
2019-04-25T09:00:36.984Z,16.81
2019-04-25T09:01:37.889Z,16.85
2019-04-25T09:02:37.482Z,17.03
2019-04-25T09:03:36.614Z,17.06
2019-04-25T09:04:36.896Z,16.98
2019-04-25T09:05:37.425Z,16.99
2019-04-25T09:06:37.276Z,17.10
2019-04-25T09:07:37.755Z,17.11
2019-04-25T09:08:38.115Z,17.44
2019-04-25T09:09:37.627Z,17.41
2019-04-25T09:10:38.229Z,17.50
2019-04-25T09:11:37.960Z,17.62
2019-04-25T09:12:36.564Z,17.67
2019-04-25T09:13:38.108Z,17.91
2019-04-25T09:14:36.817Z,17.91
2019-04-25T09:15:36.979Z,18.04
2019-04-25T09:16:36.714Z,18.27
2019-04-25T09:17:37.806Z,18.37
2019-04-25T09:18:36.955Z,18.36
2019-04-25T09:19:37.128Z,18.40
2019-04-25T09:20:39.355Z,18.55
2019-04-25T09:21:36.599Z,18.67
2019-04-25T09:22:37.413Z,18.76
2019-04-25T09:23:36.525Z,18.92
2019-04-25T09:24:36.862Z,18.97
2019-04-25T09:25:36.712Z,19.01
2019-04-25T09:26:36.906Z,19.18
2019-04-25T09:27:38.006Z,19.18
2019-04-25T09:28:38.045Z,19.21
2019-04-25T09:29:36.691Z,19.13
2019-04-25T09:30:36.848Z,19.14
2019-04-25T09:31:37.592Z,19.06
2019-04-25T09:32:35.717Z,19.08
2019-04-25T09:33:36.372Z,19.24
2019-04-25T09:34:35.650Z,19.31
2019-04-25T09:35:36.248Z,19.33
2019-04-25T09:36:35.962Z,19.33
2019-04-25T09:37:36.656Z,19.43
2019-04-25T09:38:36.007Z,19.61
2019-04-25T09:39:35.712Z,19.70
2019-04-25T09:40:36.113Z,19.84
2019-04-25T09:41:36.091Z,19.87
2019-04-25T09:42:35.768Z,19.98
2019-04-25T09:43:35.821Z,20.09
2019-04-25T09:44:37.078Z,20.25
2019-04-25T09:45:36.131Z,20.34
2019-04-25T09:46:36.295Z,20.28
2019-04-25T09:47:35.757Z,20.42
2019-04-25T09:48:36.308Z,20.41
2019-04-25T09:49:35.347Z,20.41
2019-04-25T09:50:35.328Z,20.51
2019-04-25T09:51:36.015Z,20.59
2019-04-25T09:52:36.104Z,20.68
2019-04-25T09:53:38.879Z,20.66
2019-04-25T09:54:36.144Z,20.69
2019-04-25T09:55:36.079Z,20.65
2019-04-25T09:56:36.492Z,20.62
2019-04-25T09:57:36.251Z,20.66
2019-04-25T09:58:36.450Z,20.65
2019-04-25T09:59:36.206Z,20.53
2019-04-25T10:00:36.397Z,20.61
2019-04-25T10:01:36.396Z,20.51
2019-04-25T10:02:35.882Z,20.66
2019-04-25T10:03:36.564Z,20.68
2019-04-25T10:04:35.053Z,20.81
2019-04-25T10:05:35.034Z,20.91
2019-04-25T10:06:35.020Z,21.06
2019-04-25T10:07:34.995Z,21.05
2019-04-25T10:08:34.980Z,21.14
2019-04-25T10:09:34.956Z,21.20
2019-04-25T10:10:34.937Z,21.26
2019-04-25T10:11:34.917Z,21.26
2019-04-25T10:12:34.899Z,21.39
2019-04-25T10:13:34.880Z,21.38
2019-04-25T10:14:35.615Z,21.50
2019-04-25T10:15:34.842Z,21.56
2019-04-25T10:16:35.141Z,21.66
2019-04-25T10:17:34.807Z,21.74
2019-04-25T10:18:34.789Z,21.69
2019-04-25T10:19:34.766Z,21.76
2019-04-25T10:20:34.747Z,21.81
2019-04-25T10:21:34.728Z,21.81
2019-04-25T10:22:34.710Z,21.81
2019-04-25T10:23:34.692Z,21.94
2019-04-25T10:24:34.672Z,22.16
2019-04-25T10:25:34.654Z,22.22
2019-04-25T10:26:34.926Z,22.22
2019-04-25T10:27:34.616Z,22.20
2019-04-25T10:28:34.596Z,22.04
2019-04-25T10:29:42.808Z,22.12
2019-04-25T10:30:34.564Z,22.19
2019-04-25T10:31:34.542Z,22.35
2019-04-25T10:32:34.524Z,22.46
2019-04-25T10:33:34.505Z,22.59
2019-04-25T10:34:34.487Z,22.67
2019-04-25T10:35:46.740Z,22.57
2019-04-25T10:36:34.455Z,22.56
2019-04-25T10:37:35.315Z,22.68
2019-04-25T10:38:35.136Z,22.57
2019-04-25T10:39:34.397Z,22.69
2019-04-25T10:40:34.379Z,22.60
2019-04-25T10:41:35.932Z,22.71
2019-04-25T10:42:34.369Z,22.72
2019-04-25T10:43:34.349Z,22.80
2019-04-25T10:44:34.309Z,22.87
2019-04-25T10:45:34.290Z,22.90
2019-04-25T10:46:35.773Z,22.94
2019-04-25T10:47:35.330Z,22.57
2019-04-25T10:48:34.444Z,22.49
2019-04-25T10:49:34.551Z,22.49
2019-04-25T10:50:34.222Z,22.41
2019-04-25T10:51:34.362Z,22.53
2019-04-25T10:52:34.169Z,22.44
2019-04-25T10:53:34.149Z,22.57
2019-04-25T10:54:35.233Z,22.39
2019-04-25T10:55:34.115Z,22.43
2019-04-25T10:56:34.104Z,22.53
2019-04-25T10:57:34.127Z,22.53
2019-04-25T10:58:35.284Z,22.54
2019-04-25T10:59:34.045Z,22.56
2019-04-25T11:00:34.430Z,22.41
2019-04-25T11:01:34.025Z,22.53
2019-04-25T11:02:34.067Z,22.53
2019-04-25T11:03:33.976Z,22.53
2019-04-25T11:04:33.959Z,22.50
2019-04-25T11:05:34.327Z,22.59
2019-04-25T11:06:33.925Z,22.71
2019-04-25T11:07:34.077Z,22.72
2019-04-25T11:08:34.244Z,22.74
2019-04-25T11:09:34.341Z,22.93
2019-04-25T11:10:34.406Z,22.94
2019-04-25T11:11:34.239Z,23.14
2019-04-25T11:12:33.947Z,23.22
2019-04-25T11:13:35.393Z,23.17
2019-04-25T11:14:34.312Z,23.11
2019-04-25T11:15:34.033Z,23.09
2019-04-25T11:16:33.756Z,23.04
2019-04-25T11:17:33.956Z,23.07
2019-04-25T11:18:34.078Z,23.26
2019-04-25T11:19:34.911Z,23.32
2019-04-25T11:20:33.877Z,23.42
2019-04-25T11:21:33.671Z,23.68
2019-04-25T11:22:34.194Z,23.71
2019-04-25T11:23:33.641Z,23.47
2019-04-25T11:24:34.252Z,23.47
2019-04-25T11:25:34.164Z,23.50
2019-04-25T11:26:34.603Z,23.42
2019-04-25T11:27:34.005Z,23.50
2019-04-25T11:28:33.863Z,23.60
2019-04-25T11:29:34.153Z,23.67
2019-04-25T11:30:33.529Z,23.52
2019-04-25T11:31:33.774Z,23.38
2019-04-25T11:32:33.989Z,23.53
2019-04-25T11:33:33.547Z,23.60
2019-04-25T11:34:33.466Z,23.72
2019-04-25T11:35:34.290Z,23.79
2019-04-25T11:36:34.038Z,23.85
2019-04-25T11:37:34.300Z,23.92
2019-04-25T11:38:33.910Z,24.07
2019-04-25T11:39:33.386Z,24.19
2019-04-25T11:40:34.630Z,24.41
2019-04-25T11:41:34.180Z,24.19
2019-04-25T11:42:33.827Z,24.14
2019-04-25T11:43:33.758Z,23.77
2019-04-25T11:44:34.932Z,23.85
2019-04-25T11:45:33.293Z,23.92
2019-04-25T11:46:33.419Z,23.92
2019-04-25T11:47:33.510Z,23.82
2019-04-25T11:48:34.037Z,23.76
2019-04-25T11:49:34.011Z,23.90
2019-04-25T11:50:33.218Z,23.90
2019-04-25T11:51:34.085Z,23.94
2019-04-25T11:52:33.680Z,23.98
2019-04-25T11:53:33.886Z,24.00
2019-04-25T11:54:33.159Z,24.12
2019-04-25T11:55:33.143Z,24.13
2019-04-25T11:56:34.270Z,24.34
2019-04-25T11:57:33.113Z,24.34
2019-04-25T11:58:33.098Z,24.34
2019-04-25T11:59:34.137Z,24.53
2019-04-25T12:00:33.890Z,24.64
2019-04-25T12:01:33.634Z,24.59
2019-04-25T12:02:34.357Z,24.67
2019-04-25T12:03:33.656Z,24.54
2019-04-25T12:04:33.355Z,24.31
2019-04-25T12:05:34.364Z,24.22
2019-04-25T12:06:33.472Z,24.10
2019-04-25T12:07:34.242Z,24.24
2019-04-25T12:08:33.569Z,24.29
2019-04-25T12:09:33.641Z,24.19
2019-04-25T12:10:34.513Z,24.16
2019-04-25T12:11:34.146Z,24.20
2019-04-25T12:12:33.884Z,24.17
2019-04-25T12:13:34.508Z,23.92
2019-04-25T12:14:34.171Z,23.83
2019-04-25T12:15:33.362Z,23.98
2019-04-25T12:16:32.836Z,24.00
2019-04-25T12:17:32.823Z,23.98
2019-04-25T12:18:33.861Z,23.92
2019-04-25T12:19:37.266Z,24.00
2019-04-25T12:20:34.042Z,23.94
2019-04-25T12:21:35.018Z,24.10
2019-04-25T12:22:34.314Z,24.17
2019-04-25T12:23:33.971Z,24.45
2019-04-25T12:24:33.478Z,24.42
2019-04-25T12:25:34.070Z,24.52
2019-04-25T12:26:33.699Z,24.39
2019-04-25T12:27:32.681Z,24.38
2019-04-25T12:28:33.884Z,24.31
2019-04-25T12:29:33.635Z,24.34
2019-04-25T12:30:38.143Z,24.49
2019-04-25T12:31:34.208Z,24.53
2019-04-25T12:32:35.017Z,24.42
2019-04-25T12:33:32.600Z,24.41
2019-04-25T12:34:33.801Z,24.53
2019-04-25T12:35:33.322Z,24.27
2019-04-25T12:36:34.012Z,24.08
2019-04-25T12:37:33.697Z,24.04
2019-04-25T12:38:35.109Z,23.95
2019-04-25T12:39:34.208Z,23.90
2019-04-25T12:40:34.239Z,23.97
2019-04-25T12:41:32.486Z,23.89
2019-04-25T12:42:34.263Z,23.95
2019-04-25T12:43:33.888Z,23.94
2019-04-25T12:44:32.442Z,23.75
2019-04-25T12:45:34.198Z,23.75
2019-04-25T12:46:34.585Z,23.76
2019-04-25T12:47:34.237Z,23.82
2019-04-25T12:48:35.392Z,23.71
2019-04-25T12:49:32.371Z,23.76
2019-04-25T12:50:33.647Z,23.70
2019-04-25T12:51:32.345Z,23.87
2019-04-25T12:52:33.315Z,23.94
2019-04-25T12:53:33.441Z,23.95
2019-04-25T12:54:33.952Z,23.98
2019-04-25T12:55:34.090Z,23.92
2019-04-25T12:56:33.887Z,24.02
2019-04-25T12:57:32.258Z,23.98
2019-04-25T12:58:33.440Z,24.08
2019-04-25T12:59:32.229Z,24.10
2019-04-25T13:00:32.217Z,24.12
2019-04-25T13:01:33.335Z,24.20
2019-04-25T13:02:34.422Z,24.35
2019-04-25T13:03:33.613Z,24.29
2019-04-25T13:04:33.181Z,24.41